McDowell, VA (24458)

4:27 PM EDT on September 03, 2015 (GMT -0400)
KVAMONTE3 | | Change Station
CLOSE
Current Station
Personal Weather Station
Location: Monterey, VA
Elevation: 2924 ft
Nearby Weather Stations

Elev 2924 ft 38.41 °N, 79.58 °W | Updated 2 minutes ago

Mostly Cloudy
Mostly Cloudy
69.4 °F
Feels Like 69.4 °F
N
7.0
Wind Variable Wind from SW
Gusts 8.0 mph

Today
High -- | Low -- °F
--% Chance of Precip.
Yesterday
High -- | Low -- °F
Precip. -- in
6:49 AM 7:45 PM
Waning Gibbous, 67% visible
Pressure 30.09 in
Visibility 10.0 miles
Clouds Clear
Dew Point 64 °F
Humidity 83%
Rainfall 0.02 in
Snow Depth Not available.
UV 6 out of 12
Pollen 8.80 out of 12
Air Quality Not available.
Flu Activity Not available.
METAR KHSP 032010Z AUTO 28004KT 10SM CLR 24/19 A3009 RMK AO2 LTG DSNT N T02430185
Pressure 30.09 in
Visibility 10.0 miles
Clouds Clear
Dew Point 64 °F
Humidity 83%
Rainfall 0.02 in
Snow Depth Not available.
UV 6 out of 12
Pollen 8.80 out of 12
Air Quality Not available.
Flu Activity Not available.
METAR KHSP 032010Z AUTO 28004KT 10SM CLR 24/19 A3009 RMK AO2 LTG DSNT N T02430185

10-Day Weather Forecast

×

Almanac

Astronomy

Sep. 03, 2015 Rise Set
Actual Time
Civil Twilight
Nautical Twilight
Astronomical Twilight
Moon
Length of Visible Light
Length of Day
Tomorrow will be .
, % of the Moon is Illuminated

Today's Extremes

State Highs State Lows

Community

WunderPhotos

Upload Photos

1,852,029 photos uploaded!

WunderBlogs® & News

Nearby

Air Quality

  Air Quality AQ Index Pollutant
Not available.

Snow Depth

Station Depth Elevation

Earthquake Activity

City Distance Mag. Time & Date
Minimum magnitude displayed is 2.5.

Coastal Water Temperatures

Place Temperature

Stations

Nearby Weather Stations

Station Location Temp. Windchill Dew Point Humidity Wind Precip. Elev Updated Type